Terminal Aerodrome Forecast
Issued by NWS Mobile, AL

Home | Current Version | Previous Version | Text Only | Print | Product List | Glossary On
Versions: 1 2 3 4 5 6 7 8 9 10 11 12 13 14 15 16 17 18 19 20
000
FTUS44 KMOB 220558 AAA
TAFPNS
TAF AMD
KPNS 220558Z 2206/2306 20016G28KT P6SM OVC006
     FM221200 20017G25KT 2SM -TSRA BR OVC005CB
     FM221500 20018G28KT P6SM BKN015 OVC025
     FM221800 27023G33KT P6SM BKN025=

USA.gov is the U.S. government's official web portal to all federal, state and local government web resources and services.